• Join FlightAware (Why Join?)
  • Login
  • US Flag 
 
09:29PM EST


 

Airport Tracker/Info


-or-


 

Live Flight TrackerFlight Track Log ✈ SKW4851 ✈ 18-Aug-2014 ✈ KSLC - KSUN

Flight Track Log - Related Links

Times and Time Zones

All times are in EDT time to prevent confusion due to time zone crossing. See the SKW4851 flight status page for this flight to view local times or setup timezone preferences in your user account.

Time Position Orientation Groundspeed Altitude Reporting Facility
EDT Latitude Longitude Course Direction KTS MPH feet Rate Location/Type
01:43PM 40.8067 -112.0019 328° Northwest 185 213 4,700  Level Salt Lake Center
01:44PM 40.8433 -112.0461 318° Northwest 219 252 6,000 1,560 Climbing Salt Lake Center
01:45PM 40.8647 -112.1236 290° West 253 291 7,800 2,040 Climbing Salt Lake Center
01:46PM 40.9485 -112.3661 343° North  Level FlightAware Approximate
01:46PM 40.8939 -112.2161 293° West 268 308 10,200  Level Salt Lake Center
01:47PM 41.0531 -112.4099 339° North  Level FlightAware Approximate
01:47PM 40.9664 -112.3025 318° Northwest 287 330 12,900  Level Salt Lake Center
01:48PM 41.1473 -112.4838 328° Northwest  Level FlightAware Approximate
01:48PM 41.0328 -112.3789 319° Northwest 346 398 13,500  Level Salt Lake Center
01:49PM 41.1128 -112.4625 322° Northwest 363 418 15,400 1,860 Climbing Salt Lake Center
01:50PM 41.1997 -112.5394 326° Northwest 373 429 17,400 1,860 Climbing Salt Lake Center
01:51PM 41.2836 -112.6297 321° Northwest 387 445 19,300 1,860 Climbing Salt Lake Center
01:52PM 41.3558 -112.7344 313° West 382 440 21,300 1,560 Climbing Salt Lake Center
01:53PM 41.4297 -112.8442 312° West 398 458 22,600 1,500 Climbing Salt Lake Center
01:54PM 41.5169 -112.9794 311° West 400 460 24,500 1,560 Climbing Salt Lake Center
01:55PM 41.5939 -113.0939 312° West 410 472 25,900 1,260 Climbing Salt Lake Center
01:56PM 41.6692 -113.2094 311° West 412 474 27,200 960 Climbing Salt Lake Center
01:57PM 41.7469 -113.3286 311° West 422 486 28,000 360 Climbing Salt Lake Center
01:58PM 41.8256 -113.4519 311° West 429 494 28,000  Level Salt Lake Center
01:59PM 41.9064 -113.5764 311° West 440 506 28,000  Level Salt Lake Center
02:00PM 42.0506 -113.6447 341° North 460 529 28,000  Level Salt Lake Center
02:01PM 42.1772 -113.6842 347° North 463 533 28,100  Climbing Salt Lake Center
02:02PM 42.3039 -113.7236 347° North 464 534 28,000 -60 Descending Salt Lake Center
02:03PM 42.4306 -113.7650 346° North 465 535 28,000 -780 Level Salt Lake Center
02:04PM 42.5592 -113.8069 346° North 470 541 26,500 -2,220 Descending Salt Lake Center
02:05PM 42.6886 -113.8500 346° North 476 548 23,500 -3,300 Descending Salt Lake Center
02:06PM 42.8311 -113.8953 347° North 455 524 19,800 -3,420 Descending Salt Lake Center
02:07PM 42.9506 -113.9344 347° North 426 490 16,500 -3,240 Descending Salt Lake Center
02:08PM 43.0642 -113.9706 347° North 409 471 13,200 -3,120 Descending Salt Lake Center
02:10PM 43.1714 -114.0094 345° North 387 445 10,100 -1,740 Descending Salt Lake Center
02:11PM 43.2308 -114.0897 315° West 288 331 9,700 -420 Descending Salt Lake Center